Time;durP1;ratioP1;P1;durP2;ratioP2;P2;SDS_P1;SDS_P2;PMS_P1;PMS_P2;Temp;Humidity;BMP_temperature;BMP_pressure;BME280_temperature;BME280_humidity;BME280_pressure;Samples;Min_cycle;Max_cycle;Signal;HPM_P1;HPM_P2
2021/07/08 00:01:21;;;;;;;7.27;3.93;;;;;;;-145.18;100.00;60484.78;5058440;28;20032;-68
2021/07/08 00:03:47;;;;;;;8.67;3.47;;;;;;;-145.18;100.00;60484.78;5059980;28;20087;-68
2021/07/08 00:06:13;;;;;;;7.73;3.90;;;;;;;-145.18;100.00;60484.78;5059696;28;20087;-68
2021/07/08 00:08:39;;;;;;;10.00;3.67;;;;;;;-145.18;100.00;60484.78;5059790;28;20489;-68
2021/07/08 00:11:04;;;;;;;6.63;3.20;;;;;;;-145.18;100.00;60484.78;5059710;28;20036;-68
2021/07/08 00:13:30;;;;;;;9.70;4.10;;;;;;;-145.18;100.00;60484.78;5059791;28;20381;-68
2021/07/08 00:15:57;;;;;;;8.70;3.63;;;;;;;-145.18;100.00;60484.78;5059838;28;20448;-68
2021/07/08 00:18:25;;;;;;;13.43;3.87;;;;;;;-145.18;100.00;60484.78;5060026;28;20040;-68
2021/07/08 00:20:51;;;;;;;11.13;3.97;;;;;;;-145.18;100.00;60484.78;5059100;28;20032;-68
2021/07/08 00:23:19;;;;;;;9.70;3.47;;;;;;;-145.18;100.00;60484.78;5059828;28;20039;-68
2021/07/08 00:25:46;;;;;;;6.57;3.73;;;;;;;-145.18;100.00;60484.78;5057273;28;20424;-68
2021/07/08 00:28:12;;;;;;;6.80;3.63;;;;;;;-145.18;100.00;60484.78;5059693;28;20115;-68
2021/07/08 00:30:43;;;;;;;9.10;3.80;;;;;;;-145.18;100.00;60484.78;5058303;28;20420;-68
2021/07/08 00:33:09;;;;;;;10.90;3.70;;;;;;;-145.18;100.00;60484.78;5056707;28;20315;-68
2021/07/08 00:35:36;;;;;;;9.67;3.80;;;;;;;-145.18;100.00;60484.78;5059682;28;20028;-69
2021/07/08 00:38:02;;;;;;;11.70;4.10;;;;;;;-145.18;100.00;60484.78;5059181;28;20406;-68
2021/07/08 00:40:28;;;;;;;9.27;4.10;;;;;;;-145.18;100.00;60484.78;5058923;28;20097;-68
2021/07/08 00:42:53;;;;;;;8.53;3.63;;;;;;;-145.18;100.00;60484.78;5058415;28;20107;-68
2021/07/08 00:45:21;;;;;;;9.83;3.87;;;;;;;-145.18;100.00;60484.78;5059516;28;20040;-68
2021/07/08 00:47:47;;;;;;;8.13;3.43;;;;;;;-145.18;100.00;60484.78;5058531;28;20032;-68
2021/07/08 00:50:15;;;;;;;8.80;4.00;;;;;;;-145.18;100.00;60484.78;5058642;28;20043;-68
2021/07/08 00:52:40;;;;;;;13.10;3.83;;;;;;;-145.18;100.00;60484.78;5058762;28;20249;-68
2021/07/08 00:55:08;;;;;;;7.13;3.50;;;;;;;-145.18;100.00;60484.78;5058386;28;20081;-69
2021/07/08 00:57:33;;;;;;;5.50;3.30;;;;;;;-145.18;100.00;60484.78;5058882;28;20032;-68
2021/07/08 00:59:59;;;;;;;11.90;4.37;;;;;;;-145.18;100.00;60484.78;5058524;28;20028;-68
2021/07/08 01:02:25;;;;;;;7.43;3.90;;;;;;;-145.18;100.00;60484.78;5089363;22;20105;-72
2021/07/08 01:04:51;;;;;;;8.27;4.40;;;;;;;-145.18;100.00;60484.78;5078611;28;20106;-73
2021/07/08 01:07:24;;;;;;;8.90;4.80;;;;;;;-145.18;100.00;60484.78;5071693;28;20047;-71
2021/07/08 01:09:51;;;;;;;8.70;4.27;;;;;;;-145.18;100.00;60484.78;5078881;28;20034;-71
2021/07/08 01:12:17;;;;;;;8.73;4.30;;;;;;;-145.18;100.00;60484.78;5072661;28;20810;-72
2021/07/08 01:14:43;;;;;;;9.37;4.47;;;;;;;-145.18;100.00;60484.78;5079073;28;20020;-71
2021/07/08 01:17:13;;;;;;;7.63;3.87;;;;;;;-145.18;100.00;60484.78;5069126;28;20032;-71
2021/07/08 01:19:41;;;;;;;12.43;4.17;;;;;;;-145.18;100.00;60484.78;5078929;28;20268;-71
2021/07/08 01:22:07;;;;;;;11.87;4.23;;;;;;;-145.18;100.00;60484.78;5070683;28;20704;-71
2021/07/08 01:24:33;;;;;;;12.07;4.50;;;;;;;-145.18;100.00;60484.78;5078562;28;20268;-70
2021/07/08 01:27:00;;;;;;;12.47;4.53;;;;;;;-145.18;100.00;60484.78;5078774;28;20025;-70
2021/07/08 01:29:26;;;;;;;10.13;5.00;;;;;;;-145.18;100.00;60484.78;5078850;28;20380;-70
2021/07/08 01:31:52;;;;;;;13.53;4.83;;;;;;;-145.18;100.00;60484.78;5079009;28;20180;-71
2021/07/08 01:34:17;;;;;;;12.63;5.20;;;;;;;-145.18;100.00;60484.78;5078794;28;20032;-71
2021/07/08 01:36:43;;;;;;;12.30;5.90;;;;;;;-145.18;100.00;60484.78;5071830;28;20032;-71
2021/07/08 01:39:08;;;;;;;10.70;5.40;;;;;;;-145.18;100.00;60484.78;5078043;28;20020;-71
2021/07/08 01:41:34;;;;;;;10.73;5.73;;;;;;;-145.18;100.00;60484.78;5082286;28;20166;-71
2021/07/08 01:44:00;;;;;;;13.57;6.20;;;;;;;-145.18;100.00;60484.78;5081892;28;20028;-71
2021/07/08 01:46:26;;;;;;;15.20;5.93;;;;;;;-145.18;100.00;60484.78;5076666;28;20032;-71
2021/07/08 01:48:52;;;;;;;14.40;5.67;;;;;;;-145.18;100.00;60484.78;5082289;28;20059;-71
2021/07/08 01:51:27;;;;;;;13.07;5.90;;;;;;;-145.18;100.00;60484.78;5074310;28;20024;-71
2021/07/08 01:53:53;;;;;;;14.13;6.17;;;;;;;-145.18;100.00;60484.78;5082095;28;20055;-71
2021/07/08 01:56:19;;;;;;;11.90;5.83;;;;;;;-145.18;100.00;60484.78;5081100;28;20016;-71
2021/07/08 01:58:45;;;;;;;16.27;6.70;;;;;;;-145.18;100.00;60484.78;5082730;28;20023;-71
2021/07/08 02:01:11;;;;;;;12.67;6.73;;;;;;;-145.18;100.00;60484.78;5081793;28;20020;-71
2021/07/08 02:03:36;;;;;;;10.87;6.43;;;;;;;-145.18;100.00;60484.78;5065006;28;20048;-71
2021/07/08 02:06:04;;;;;;;17.33;6.77;;;;;;;-145.18;100.00;60484.78;5062436;28;20036;-71
2021/07/08 02:08:29;;;;;;;15.97;7.17;;;;;;;-145.18;100.00;60484.78;5061956;28;20415;-71
2021/07/08 02:10:55;;;;;;;15.97;6.60;;;;;;;-145.18;100.00;60484.78;5061930;28;20028;-71
2021/07/08 02:13:21;;;;;;;14.80;7.23;;;;;;;-145.18;100.00;60484.78;5062037;28;20111;-71
2021/07/08 02:15:46;;;;;;;19.53;6.70;;;;;;;-145.18;100.00;60484.78;5060544;28;20486;-71
2021/07/08 02:18:12;;;;;;;12.27;6.97;;;;;;;-145.18;100.00;60484.78;5062070;28;20028;-71
2021/07/08 02:20:38;;;;;;;15.70;7.27;;;;;;;-145.18;100.00;60484.78;5061873;28;20024;-71
2021/07/08 02:23:05;;;;;;;13.53;7.33;;;;;;;-145.18;100.00;60484.78;5061965;28;20020;-71
2021/07/08 02:25:30;;;;;;;19.83;7.83;;;;;;;-145.18;100.00;60484.78;5057289;28;20503;-71
2021/07/08 02:27:58;;;;;;;20.30;7.17;;;;;;;-145.18;100.00;60484.78;5060189;28;20036;-71
2021/07/08 02:30:25;;;;;;;20.13;6.80;;;;;;;-145.18;100.00;60484.78;5062195;28;20028;-72
2021/07/08 02:32:52;;;;;;;19.40;6.77;;;;;;;-145.18;100.00;60484.78;5061944;28;20024;-72
2021/07/08 02:35:19;;;;;;;19.93;7.13;;;;;;;-145.18;100.00;60484.78;5061217;28;20372;-72
2021/07/08 02:37:45;;;;;;;13.20;6.63;;;;;;;-145.18;100.00;60484.78;5060906;28;20028;-72
2021/07/08 02:40:14;;;;;;;17.10;7.00;;;;;;;-145.18;100.00;60484.78;5061118;28;20264;-72
2021/07/08 02:42:40;;;;;;;13.60;7.10;;;;;;;-145.18;100.00;60484.78;5061204;28;20446;-73
2021/07/08 02:45:07;;;;;;;19.83;7.03;;;;;;;-145.18;100.00;60484.78;5061163;28;20256;-73
2021/07/08 02:47:34;;;;;;;17.10;7.43;;;;;;;-145.18;100.00;60484.78;5060079;28;20043;-73
2021/07/08 02:50:00;;;;;;;14.43;7.53;;;;;;;-145.18;100.00;60484.78;5061619;28;20407;-70
2021/07/08 02:52:25;;;;;;;20.90;6.90;;;;;;;-145.18;100.00;60484.78;5061822;28;20029;-70
2021/07/08 02:54:51;;;;;;;17.87;7.13;;;;;;;-145.18;100.00;60484.78;5061262;28;20537;-70
2021/07/08 02:57:16;;;;;;;16.50;7.33;;;;;;;-145.18;100.00;60484.78;5067909;28;20111;-70
2021/07/08 02:59:42;;;;;;;14.97;7.03;;;;;;;-145.18;100.00;60484.78;5061135;28;20311;-70
2021/07/08 03:02:07;;;;;;;16.27;7.37;;;;;;;-145.18;100.00;60484.78;5060770;28;20161;-70
2021/07/08 03:04:33;;;;;;;13.43;6.30;;;;;;;-145.18;100.00;60484.78;5061081;28;20534;-70
2021/07/08 03:06:58;;;;;;;14.47;6.83;;;;;;;-145.18;100.00;60484.78;5059886;28;20845;-70
2021/07/08 03:09:24;;;;;;;16.47;7.23;;;;;;;-145.18;100.00;60484.78;5060958;28;20476;-70
2021/07/08 03:11:49;;;;;;;18.00;6.90;;;;;;;-145.18;100.00;60484.78;5061110;28;20232;-70
2021/07/08 03:14:15;;;;;;;17.43;7.00;;;;;;;-145.18;100.00;60484.78;5061040;28;20036;-70
2021/07/08 03:16:41;;;;;;;12.73;6.90;;;;;;;-145.18;100.00;60484.78;5060654;28;20471;-70
2021/07/08 03:19:06;;;;;;;16.20;7.70;;;;;;;-145.18;100.00;60484.78;5061322;28;20434;-70
2021/07/08 03:21:32;;;;;;;16.77;7.13;;;;;;;-145.18;100.00;60484.78;5061176;28;20405;-70
2021/07/08 03:23:57;;;;;;;16.57;7.23;;;;;;;-145.18;100.00;60484.78;5059351;28;20028;-70
2021/07/08 03:26:23;;;;;;;17.73;7.37;;;;;;;-145.18;100.00;60484.78;5058450;28;20021;-70
2021/07/08 03:28:48;;;;;;;20.20;6.97;;;;;;;-145.18;100.00;60484.78;5061397;28;20036;-71
2021/07/08 03:31:14;;;;;;;15.70;8.43;;;;;;;-145.18;100.00;60484.78;5060727;28;20020;-71
2021/07/08 03:33:40;;;;;;;15.93;7.67;;;;;;;-145.18;100.00;60484.78;5060989;28;20408;-71
2021/07/08 03:36:06;;;;;;;17.07;7.47;;;;;;;-145.18;100.00;60484.78;5064629;28;20164;-71
2021/07/08 03:38:31;;;;;;;16.60;7.30;;;;;;;-145.18;100.00;60484.78;5066053;28;20034;-71
2021/07/08 03:40:57;;;;;;;16.63;7.43;;;;;;;-145.18;100.00;60484.78;5060600;28;20052;-71
2021/07/08 03:43:22;;;;;;;17.70;7.97;;;;;;;-145.18;100.00;60484.78;5060662;28;20024;-72
2021/07/08 03:45:48;;;;;;;20.50;7.23;;;;;;;-145.18;100.00;60484.78;5060336;28;20158;-71
2021/07/08 03:48:13;;;;;;;14.30;7.13;;;;;;;-145.18;100.00;60484.78;5060003;28;20126;-71
2021/07/08 03:50:39;;;;;;;18.23;7.50;;;;;;;-145.18;100.00;60484.78;5060235;28;20506;-71
2021/07/08 03:53:04;;;;;;;16.57;7.30;;;;;;;-145.18;100.00;60484.78;5057053;28;20066;-71
2021/07/08 03:55:30;;;;;;;16.83;7.93;;;;;;;-145.18;100.00;60484.78;5057234;28;20024;-71
2021/07/08 03:57:55;;;;;;;22.57;7.90;;;;;;;-145.18;100.00;60484.78;5059526;28;20025;-71
2021/07/08 04:00:31;;;;;;;17.47;7.50;;;;;;;-145.18;100.00;60484.78;5058974;28;20038;-71
2021/07/08 04:03:03;;;;;;;15.67;6.90;;;;;;;-145.18;100.00;60484.78;5059416;28;20040;-71
2021/07/08 04:05:28;;;;;;;20.27;7.45;;;;;;;-145.18;100.00;60484.78;5060120;28;20020;-71
2021/07/08 04:07:54;;;;;;;16.07;7.40;;;;;;;-145.18;100.00;60484.78;5060201;28;20037;-71
2021/07/08 04:10:20;;;;;;;14.63;7.10;;;;;;;-145.18;100.00;60484.78;5060239;28;20032;-71
2021/07/08 04:12:46;;;;;;;17.33;7.43;;;;;;;-145.18;100.00;60484.78;5066310;28;20037;-71
2021/07/08 04:15:12;;;;;;;15.60;6.70;;;;;;;-145.18;100.00;60484.78;5060226;28;20021;-71
2021/07/08 04:17:37;;;;;;;15.13;6.43;;;;;;;-145.18;100.00;60484.78;5060267;28;20541;-72
2021/07/08 04:20:09;;;;;;;19.30;7.00;;;;;;;-145.18;100.00;60484.78;5059686;28;20024;-72
2021/07/08 04:22:34;;;;;;;15.85;8.20;;;;;;;-145.18;100.00;60484.78;5060178;28;20202;-71
2021/07/08 04:25:00;;;;;;;19.07;7.57;;;;;;;-145.18;100.00;60484.78;5060190;28;20016;-71
2021/07/08 04:27:27;;;;;;;15.70;7.60;;;;;;;-145.18;100.00;60484.78;5059908;28;20024;-71
2021/07/08 04:29:52;;;;;;;19.17;7.50;;;;;;;-145.18;100.00;60484.78;5059856;28;20021;-71
2021/07/08 04:32:18;;;;;;;17.20;7.27;;;;;;;-145.18;100.00;60484.78;5059956;28;20492;-71
2021/07/08 04:34:44;;;;;;;17.63;7.30;;;;;;;20.31;100.00;99755.81;5059917;28;20031;-72
2021/07/08 04:37:10;;;;;;;12.80;6.97;;;;;;;15.98;100.00;101289.16;5048733;28;20063;-71
2021/07/08 04:39:35;;;;;;;16.90;7.23;;;;;;;-145.18;100.00;60484.78;5058338;28;20056;-71
2021/07/08 04:42:02;;;;;;;12.63;7.43;;;;;;;-145.18;100.00;60484.78;5058464;28;20047;-72
2021/07/08 04:44:27;;;;;;;18.07;6.73;;;;;;;-145.18;100.00;60484.78;5059154;28;20396;-72
2021/07/08 04:46:53;;;;;;;9.07;5.77;;;;;;;15.98;100.00;101289.16;5058922;28;20265;-71
2021/07/08 04:49:19;;;;;;;11.90;6.00;;;;;;;15.98;100.00;101289.16;5059023;28;20024;-71
2021/07/08 04:51:44;;;;;;;10.53;6.10;;;;;;;15.98;100.00;101289.16;5059543;28;20024;-71
2021/07/08 04:54:10;;;;;;;8.87;5.30;;;;;;;15.98;100.00;101289.16;5059609;28;20411;-71
2021/07/08 04:56:36;;;;;;;8.50;5.13;;;;;;;16.31;100.00;101301.97;5059511;28;20315;-71
2021/07/08 04:59:01;;;;;;;12.97;5.37;;;;;;;16.37;100.00;101295.75;5059210;28;20385;-71
2021/07/08 05:01:29;;;;;;;12.43;5.83;;;;;;;16.39;100.00;101289.56;5059300;28;20043;-71
2021/07/08 05:03:58;;;;;;;13.03;5.30;;;;;;;16.50;100.00;101296.47;5059016;28;20497;-71
2021/07/08 05:06:24;;;;;;;12.10;5.73;;;;;;;16.54;100.00;101300.81;5059367;28;20096;-72
2021/07/08 05:08:50;;;;;;;11.43;6.30;;;;;;;16.71;100.00;101301.47;5059513;28;20317;-72
2021/07/08 05:11:16;;;;;;;12.70;6.20;;;;;;;16.86;100.00;101305.69;5058769;28;20384;-73
2021/07/08 05:13:41;;;;;;;11.53;5.63;;;;;;;17.02;100.00;101301.03;5059413;28;20028;-71
2021/07/08 05:16:07;;;;;;;13.17;5.60;;;;;;;17.11;100.00;101300.91;5059516;28;20029;-72
2021/07/08 05:18:36;;;;;;;15.47;5.80;;;;;;;17.23;100.00;101295.41;5059578;28;20487;-71
2021/07/08 05:21:01;;;;;;;10.13;5.10;;;;;;;17.41;100.00;101299.50;5059321;28;20090;-71
2021/07/08 05:23:29;;;;;;;12.30;5.17;;;;;;;17.53;100.00;101300.16;5059781;28;20391;-71
2021/07/08 05:25:54;;;;;;;8.47;5.13;;;;;;;17.73;100.00;101302.50;5059123;28;20107;-71
2021/07/08 05:28:20;;;;;;;13.10;5.70;;;;;;;18.05;100.00;101304.56;5059236;28;20107;-72
2021/07/08 05:30:46;;;;;;;12.43;5.70;;;;;;;18.38;100.00;101310.03;5058973;28;20089;-71
2021/07/08 05:33:12;;;;;;;9.40;4.93;;;;;;;18.60;100.00;101306.03;5059634;28;20107;-71
2021/07/08 05:35:37;;;;;;;11.73;5.53;;;;;;;18.30;100.00;101319.94;5059512;28;20423;-71
2021/07/08 05:38:03;;;;;;;10.73;4.70;;;;;;;18.16;100.00;101312.25;5058827;28;20052;-71
2021/07/08 05:40:29;;;;;;;10.37;4.57;;;;;;;18.42;100.00;101314.41;5059606;28;20317;-72
2021/07/08 05:42:55;;;;;;;11.70;4.50;;;;;;;19.19;100.00;101314.44;5058975;28;20495;-70
2021/07/08 05:45:21;;;;;;;9.17;4.33;;;;;;;20.50;100.00;101322.50;5059146;28;20189;-69
2021/07/08 05:47:46;;;;;;;15.13;4.50;;;;;;;21.85;100.00;101330.53;5060085;28;20256;-70
2021/07/08 05:50:12;;;;;;;11.82;4.18;;;;;;;23.07;100.00;101339.31;5060043;28;20285;-69
2021/07/08 05:52:38;;;;;;;11.73;4.20;;;;;;;24.38;100.00;101339.06;5056090;28;20024;-70
2021/07/08 05:55:05;;;;;;;6.72;3.50;;;;;;;24.66;100.00;101340.47;5059829;28;20393;-69
2021/07/08 05:57:30;;;;;;;9.18;3.20;;;;;;;25.40;100.00;101346.69;5059341;28;20093;-70
2021/07/08 05:59:56;;;;;;;9.32;3.17;;;;;;;25.17;100.00;101355.00;5059557;28;20020;-70
2021/07/08 06:02:21;;;;;;;8.30;3.35;;;;;;;24.57;100.00;101348.91;5058151;28;20277;-70
2021/07/08 06:04:47;;;;;;;6.95;3.00;;;;;;;23.50;100.00;101343.78;5059001;28;20120;-70
2021/07/08 06:07:12;;;;;;;8.40;3.40;;;;;;;23.03;100.00;101343.03;5058701;28;20070;-71
2021/07/08 06:09:38;;;;;;;6.57;3.03;;;;;;;22.91;100.00;101344.41;5058805;28;20273;-71
2021/07/08 06:12:04;;;;;;;9.55;3.40;;;;;;;22.51;100.00;101350.34;5064655;28;20028;-72
2021/07/08 06:14:30;;;;;;;6.82;3.15;;;;;;;21.65;100.00;101358.72;5059107;28;20535;-71
2021/07/08 06:16:55;;;;;;;6.28;3.58;;;;;;;21.19;100.00;101358.44;5058771;28;20046;-71
2021/07/08 06:19:21;;;;;;;6.75;3.50;;;;;;;20.85;100.00;101358.66;5059181;28;20017;-71
2021/07/08 06:21:48;;;;;;;7.95;3.65;;;;;;;20.75;100.00;101363.38;5058722;28;20125;-71
2021/07/08 06:24:15;;;;;;;6.60;3.78;;;;;;;20.74;100.00;101364.28;5061764;28;20025;-71
2021/07/08 06:26:40;;;;;;;6.65;3.65;;;;;;;21.03;100.00;101368.72;5051073;28;20569;-71
2021/07/08 06:29:06;;;;;;;6.07;3.35;;;;;;;21.14;100.00;101361.25;5062322;28;20094;-71
2021/07/08 06:31:31;;;;;;;6.88;3.15;;;;;;;21.23;100.00;101357.44;5049679;28;20389;-71
2021/07/08 06:33:57;;;;;;;6.70;3.13;;;;;;;21.13;100.00;101370.16;5062172;28;20071;-72
2021/07/08 06:36:22;;;;;;;8.02;3.28;;;;;;;21.12;100.00;101364.91;5048580;28;20264;-71
2021/07/08 06:38:48;;;;;;;5.57;3.28;;;;;;;20.75;100.00;101369.56;5062341;28;20028;-72
2021/07/08 06:41:13;;;;;;;5.30;3.10;;;;;;;20.62;100.00;101368.19;5061747;28;20526;-72
2021/07/08 06:43:39;;;;;;;11.07;3.53;;;;;;;20.71;100.00;101359.03;5061830;28;20028;-72
2021/07/08 06:46:04;;;;;;;11.07;3.92;;;;;;;20.88;100.00;101372.72;5062095;28;20028;-71
2021/07/08 06:48:30;;;;;;;6.55;3.42;;;;;;;21.26;100.00;101376.00;5061913;28;20040;-71
2021/07/08 06:50:56;;;;;;;9.15;3.25;;;;;;;21.29;100.00;101375.91;5062132;28;20028;-72
2021/07/08 06:53:22;;;;;;;8.73;3.33;;;;;;;21.56;100.00;101382.09;5061251;28;20020;-72
2021/07/08 06:55:48;;;;;;;5.72;2.83;;;;;;;21.70;100.00;101382.53;5061624;28;20210;-72
2021/07/08 06:58:13;;;;;;;5.00;2.80;;;;;;;21.86;100.00;101377.56;5061713;28;20032;-72
2021/07/08 07:00:41;;;;;;;9.48;2.95;;;;;;;21.72;100.00;101377.16;5061516;28;20039;-71
2021/07/08 07:03:08;;;;;;;8.45;2.50;;;;;;;21.52;100.00;101383.13;5052926;28;20452;-72
2021/07/08 07:05:34;;;;;;;8.68;2.80;;;;;;;21.50;100.00;101390.31;5061407;28;20028;-72
2021/07/08 07:08:00;;;;;;;8.07;3.58;;;;;;;21.42;100.00;101382.56;5061550;28;20024;-72
2021/07/08 07:10:28;;;;;;;6.90;2.70;;;;;;;21.27;100.00;101383.06;5061693;28;20064;-71
2021/07/08 07:12:56;;;;;;;13.30;3.20;;;;;;;21.13;100.00;101379.94;5061397;28;20270;-72
2021/07/08 07:15:26;;;;;;;5.80;2.63;;;;;;;21.16;100.00;101379.84;5061139;28;20032;-71
2021/07/08 07:17:52;;;;;;;7.82;2.80;;;;;;;21.34;100.00;101374.84;5061223;28;20142;-72
2021/07/08 07:20:18;;;;;;;9.05;2.95;;;;;;;21.33;100.00;101369.56;5061671;28;20033;-71
2021/07/08 07:22:45;;;;;;;6.45;2.95;;;;;;;21.34;100.00;101373.97;5061306;28;20121;-72
2021/07/08 07:25:12;;;;;;;8.65;3.20;;;;;;;21.34;100.00;101379.28;5060952;28;20275;-72
2021/07/08 07:27:38;;;;;;;5.93;2.78;;;;;;;21.49;100.00;101389.44;5061179;28;20056;-73
2021/07/08 07:30:05;;;;;;;4.90;2.67;;;;;;;21.54;100.00;101384.81;5061350;28;20124;-73
2021/07/08 07:32:32;;;;;;;6.63;3.00;;;;;;;21.44;100.00;101385.16;5060938;28;20116;-70
2021/07/08 07:34:58;;;;;;;7.22;3.15;;;;;;;21.67;100.00;101382.63;5059804;28;20020;-70
2021/07/08 07:37:24;;;;;;;7.78;2.90;;;;;;;21.98;100.00;101394.91;5061420;28;20166;-70
2021/07/08 07:39:50;;;;;;;4.63;2.70;;;;;;;22.30;100.00;101393.81;5061222;28;20024;-70
2021/07/08 07:42:16;;;;;;;6.60;3.22;;;;;;;22.73;100.00;101404.63;5061249;28;20032;-71
2021/07/08 07:44:44;;;;;;;8.90;3.33;;;;;;;23.14;100.00;101399.53;5060898;28;20028;-70
2021/07/08 07:47:13;;;;;;;5.18;2.72;;;;;;;23.38;100.00;101394.97;5073052;28;20288;-71
2021/07/08 07:49:39;;;;;;;5.53;2.85;;;;;;;23.42;100.00;101393.94;5061332;28;20442;-72
2021/07/08 07:52:05;;;;;;;6.07;2.80;;;;;;;24.04;100.00;101397.63;5060998;28;20260;-73
2021/07/08 07:54:35;;;;;;;6.32;2.97;;;;;;;25.37;100.00;101400.41;5061066;28;20020;-73
2021/07/08 07:57:05;;;;;;;9.32;2.55;;;;;;;26.65;100.00;101398.31;5060896;28;20024;-70
2021/07/08 07:59:34;;;;;;;5.28;2.53;;;;;;;26.65;100.00;101398.31;5047542;28;20050;-70
2021/07/08 08:02:01;;;;;;;6.72;2.40;;;;;;;27.30;91.34;101412.63;5057570;28;20079;-70
2021/07/08 08:04:29;;;;;;;7.85;2.10;;;;;;;27.66;88.68;101417.72;5060416;28;20239;-70
2021/07/08 08:09:40;;;;;;;5.63;1.60;;;;;;;26.68;80.23;101423.19;5061183;28;20435;-70
2021/07/08 08:12:06;;;;;;;4.60;1.73;;;;;;;27.87;79.16;101419.16;5069625;28;20024;-70
2021/07/08 08:14:32;;;;;;;3.97;1.63;;;;;;;28.92;68.21;101430.66;5060864;28;20055;-69
2021/07/08 08:16:58;;;;;;;4.38;1.65;;;;;;;28.95;63.39;101434.97;5067959;28;20051;-70
2021/07/08 08:19:24;;;;;;;4.63;1.80;;;;;;;28.05;63.80;101445.91;5060035;28;20055;-69
2021/07/08 08:21:49;;;;;;;3.85;1.60;;;;;;;28.68;69.24;101437.56;5060324;28;20028;-70
2021/07/08 08:24:15;;;;;;;3.40;1.45;;;;;;;29.90;63.98;101459.31;5055811;28;20458;-70
2021/07/08 08:26:41;;;;;;;4.38;1.42;;;;;;;30.92;59.73;101453.09;5060066;28;20028;-71
2021/07/08 08:29:06;;;;;;;3.80;1.45;;;;;;;29.80;62.94;101450.09;5060416;28;20050;-71
2021/07/08 08:31:32;;;;;;;3.45;1.30;;;;;;;29.80;62.94;101450.09;5061019;28;20028;-70
2021/07/08 08:33:57;;;;;;;3.47;1.27;;;;;;;31.30;55.54;101452.16;5060184;28;20039;-70
2021/07/08 08:36:23;;;;;;;4.28;1.63;;;;;;;29.56;53.35;101461.56;5060002;28;20020;-70
2021/07/08 08:38:48;;;;;;;3.85;1.27;;;;;;;29.29;53.75;101466.03;5060262;28;20024;-71
2021/07/08 08:41:14;;;;;;;2.88;1.30;;;;;;;28.77;58.32;101456.72;5059584;28;20032;-71
2021/07/08 08:43:40;;;;;;;5.38;1.50;;;;;;;28.06;56.95;101458.38;5059771;28;20025;-70
2021/07/08 08:46:06;;;;;;;4.07;1.50;;;;;;;29.87;55.94;101470.31;5059147;28;20493;-71
2021/07/08 08:48:31;;;;;;;3.35;1.30;;;;;;;30.61;53.52;101475.09;5059588;28;20077;-71
2021/07/08 08:50:57;;;;;;;3.05;1.27;;;;;;;30.07;58.81;101466.31;5059590;28;20125;-71
2021/07/08 08:53:24;;;;;;;3.33;1.40;;;;;;;30.07;58.81;101466.31;5059822;28;20604;-71
2021/07/08 08:55:50;;;;;;;4.55;1.58;;;;;;;-145.18;100.00;60484.78;5059698;28;20159;-71
2021/07/08 08:58:19;;;;;;;2.50;1.40;;;;;;;-145.18;100.00;60484.78;5059689;28;20223;-71
2021/07/08 09:00:57;;;;;;;5.80;1.40;;;;;;;-145.18;100.00;60484.78;5059426;28;20024;-71
2021/07/08 09:03:28;;;;;;;3.33;1.20;;;;;;;-145.18;100.00;60484.78;5059540;28;20044;-70
2021/07/08 09:06:06;;;;;;;3.70;1.33;;;;;;;-145.18;100.00;60484.78;5058981;28;20107;-71
2021/07/08 09:08:37;;;;;;;3.42;1.20;;;;;;;-145.18;100.00;60484.78;5058993;28;20308;-72
2021/07/08 09:11:29;;;;;;;3.00;1.10;;;;;;;-145.18;100.00;60484.78;5059232;28;20024;-71
2021/07/08 09:14:01;;;;;;;2.83;0.90;;;;;;;-145.18;100.00;60484.78;5057013;28;20032;-71
2021/07/08 09:16:39;;;;;;;2.13;1.02;;;;;;;-145.18;100.00;60484.78;5059439;28;20029;-71
2021/07/08 09:19:21;;;;;;;2.38;0.95;;;;;;;-145.18;100.00;60484.78;5046864;28;20117;-71
2021/07/08 09:21:52;;;;;;;2.22;0.90;;;;;;;-145.18;100.00;60484.78;5059230;28;20055;-71
2021/07/08 09:24:32;;;;;;;3.85;1.30;;;;;;;-145.18;100.00;60484.78;5059469;28;20280;-70
2021/07/08 09:27:09;;;;;;;4.22;1.17;;;;;;;-145.18;100.00;60484.78;5059310;28;20044;-71
2021/07/08 09:29:47;;;;;;;2.63;1.20;;;;;;;-145.18;100.00;60484.78;5059141;28;20035;-71
2021/07/08 09:32:17;;;;;;;3.47;1.23;;;;;;;-145.18;100.00;60484.78;5059109;28;20036;-71
2021/07/08 09:34:50;;;;;;;3.38;1.02;;;;;;;-145.18;100.00;60484.78;5059444;28;20092;-71
2021/07/08 09:37:17;;;;;;;5.68;1.13;;;;;;;-145.18;100.00;60484.78;5059129;28;20032;-72
2021/07/08 09:39:58;;;;;;;2.40;0.80;;;;;;;-145.18;100.00;60484.78;5059208;28;20017;-72
2021/07/08 09:42:53;;;;;;;4.43;1.30;;;;;;;-145.18;100.00;60484.78;5058995;28;20257;-71
2021/07/08 09:45:18;;;;;;;3.72;1.00;;;;;;;-145.18;100.00;60484.78;5041557;28;20292;-71
2021/07/08 09:47:47;;;;;;;5.13;1.00;;;;;;;-145.18;100.00;60484.78;5059195;28;20651;-71
2021/07/08 09:50:33;;;;;;;6.40;1.13;;;;;;;-145.18;100.00;60484.78;5058672;28;20168;-72
2021/07/08 09:53:21;;;;;;;2.65;1.10;;;;;;;-145.18;100.00;60484.78;5058452;28;20304;-71
2021/07/08 09:59:03;;;;;;;4.82;1.20;;;;;;;-145.18;100.00;60484.78;5019580;28;20709;-71
2021/07/08 10:01:29;;;;;;;4.10;1.10;;;;;;;-145.18;100.00;60484.78;5019466;28;20314;-72
2021/07/08 10:03:56;;;;;;;3.50;0.90;;;;;;;-145.18;100.00;60484.78;5019377;28;20488;-71
2021/07/08 10:06:22;;;;;;;2.63;0.90;;;;;;;-145.18;100.00;60484.78;5019300;28;20057;-72
2021/07/08 10:08:49;;;;;;;3.63;0.93;;;;;;;-145.18;100.00;60484.78;5019636;28;20081;-71
2021/07/08 10:11:16;;;;;;;2.75;1.00;;;;;;;-145.18;100.00;60484.78;5019215;28;20041;-71
2021/07/08 10:13:48;;;;;;;1.88;0.90;;;;;;;-145.18;100.00;60484.78;5019728;28;20041;-71
2021/07/08 10:16:15;;;;;;;2.38;1.00;;;;;;;-145.18;100.00;60484.78;5019504;28;20104;-72
2021/07/08 10:18:42;;;;;;;1.98;0.95;;;;;;;-145.18;100.00;60484.78;5019544;28;20212;-72
2021/07/08 10:21:10;;;;;;;3.30;1.05;;;;;;;-145.18;100.00;60484.78;5018899;28;20048;-71
2021/07/08 10:23:37;;;;;;;2.55;1.15;;;;;;;-145.18;100.00;60484.78;5019312;28;20435;-72
2021/07/08 10:26:05;;;;;;;2.80;0.90;;;;;;;-145.18;100.00;60484.78;5020544;28;20524;-72
2021/07/08 10:28:34;;;;;;;2.85;1.27;;;;;;;-145.18;100.00;60484.78;5019175;28;20022;-72
2021/07/08 10:31:00;;;;;;;2.58;0.90;;;;;;;-145.18;100.00;60484.78;5018918;28;20047;-72
2021/07/08 10:33:25;;;;;;;4.38;1.08;;;;;;;-145.18;100.00;60484.78;5042858;28;20112;-72
2021/07/08 10:35:53;;;;;;;2.85;1.00;;;;;;;-145.18;100.00;60484.78;5062327;28;20012;-72
2021/07/08 10:38:39;;;;;;;3.38;1.00;;;;;;;-145.18;100.00;60484.78;5062091;28;20508;-73
2021/07/08 10:41:54;;;;;;;2.67;0.82;;;;;;;-145.18;100.00;60484.78;5061552;28;20047;-72
2021/07/08 10:44:48;;;;;;;2.50;0.90;;;;;;;-145.18;100.00;60484.78;5028807;28;20040;-73
2021/07/08 10:47:35;;;;;;;7.45;1.15;;;;;;;-145.18;100.00;60484.78;5062133;28;20476;-72
2021/07/08 10:50:03;;;;;;;4.00;0.98;;;;;;;-145.18;100.00;60484.78;5061777;28;20081;-73
2021/07/08 10:52:46;;;;;;;3.15;0.90;;;;;;;-145.18;100.00;60484.78;5061562;28;20021;-72
2021/07/08 10:55:35;;;;;;;3.10;1.20;;;;;;;-145.18;100.00;60484.78;5062085;28;20029;-72
2021/07/08 10:58:01;;;;;;;2.65;1.00;;;;;;;-145.18;100.00;60484.78;5061454;28;20028;-72
2021/07/08 11:00:48;;;;;;;2.72;0.90;;;;;;;-145.18;100.00;60484.78;5061629;28;20179;-72
2021/07/08 11:03:37;;;;;;;2.60;0.90;;;;;;;-145.18;100.00;60484.78;5052790;28;20048;-72
2021/07/08 11:06:29;;;;;;;2.35;1.00;;;;;;;-145.18;100.00;60484.78;5061778;28;20032;-71
2021/07/08 11:09:33;;;;;;;1.35;0.80;;;;;;;-145.18;100.00;60484.78;5061444;28;20130;-72
2021/07/08 11:12:00;;;;;;;3.28;0.88;;;;;;;-145.18;100.00;60484.78;5007281;28;20033;-71
2021/07/08 11:14:28;;;;;;;2.83;1.15;;;;;;;-145.18;100.00;60484.78;4998695;28;20038;-72
2021/07/08 11:17:00;;;;;;;2.58;0.90;;;;;;;-145.18;100.00;60484.78;4998173;28;20042;-72
2021/07/08 11:19:38;;;;;;;3.97;1.50;;;;;;;-145.18;100.00;60484.78;4998858;28;20181;-71